Terminal Aerodrome Forecast
Issued by NWS

Home | Current Version | Previous Version | Text Only | Print | Product List | Glossary On
Versions: 1 2 3 4 5 6 7 8 9 10 11 12 13
000
FTUS44 KLZK 301100
TAFHRO
TAF
KHRO 301120Z 3012/0112 16005KT P6SM SCT250
     FM301700 18009KT P6SM BKN050 BKN250
     FM010000 16003KT P6SM SCT250=

USA.gov is the U.S. government's official web portal to all federal, state and local government web resources and services.